Pagrindinis puslapis
METAR-TAF:

METAR-TAF

Oro uostai :

Vladivostokas, Rusija

platuma: 43-07N, ilguma: 131-56E, Aukštis: 184 m

Dabartinis oras

Ataskaita buvo paskelbta 32 minutes, ne 03:30 UTC
Vėjas 2 kt nuo kintamojo kryptimis
Temperatūra 1°C
Drėgmė 59%
Slėgis 1027 hPa
Matomumas 10 km arba daugiau

METAR: UHWW 240330Z VRB01MPS 9999 NSC 01/M06 Q1027 R25L/0///70 NOSIG RMK QFE769

Laikas: 14:02 (04:02 UTC)

Prognozė

Ataskaita buvo paskelbta 2 valandos ir 2 minutes, ne 02:00 UTC
Prognozė galioja nuo 24 metu 03 UTC su 25 metu 03 UTC
Vėjas 6 kt iš Pietų
Matomumas 10 km arba daugiau
Išsisklaidę debesys ne aukštis 2500 ft
Laikinai
nuo 24 metu 03 UTC su 24 metu 08 UTC
Vėjas 6 kt iš Rytų/Pietryčių
Išsisklaidę debesys ne aukštis 1700 ft
Tapsmas
nuo 24 metu 12 UTC su 24 metu 14 UTC
Vėjas 6 kt iš Šiaurės
Tapsmas
nuo 25 metu 00 UTC su 25 metu 02 UTC
Vėjas 6 kt iš Pietų

TAF: UHWW 240200Z 2403/2503 18003MPS 9999 SCT025 TEMPO 2403/2408 12003MPS SCT017 BECMG 2412/2414 36003MPS BECMG 2500/2502 17003MPS

Orai ataskaitas ir orų prognozės (METAR, TAF).

turimą stotys yra geltonos ir raudonos taškus žemėlapyje.

Perkelti pele per norėdami pamatyti stoties vardą.

Tada spustelėkite, norėdami matyti oro stebėjimo ir prognozės.

Norėdami pakeisti žemėlapį: spustelėkite ant žalios mygtukų su juodo kryžiaus žemyn,; žalią mygtuką su brūkšneliu, jei norite nutolinti; arba žalių rodyklių gretimoms žemėlapius.


METAR-TAF: